Riverdale, Georgia
Current Conditions -  °F | °C
As of 5:52 PM on Friday 31 Oct 2014 (Local Time) from KATL Reporting Station
Broken Clouds Broken Clouds  
Wind Chill: 15°   Ceiling: 5500
Heat Index: 15°   Visibility: 10mi
Dew Point:   Wind: 10mph
Humidity: 53%   Direction: 310°NW
Pressure: 29.89"   Gusts: NA
Location:  33.57°N, 84.41°W
Report Text: KATL 312152Z 31009KT 10SM FEW040 BKN055 BKN070 15/06 A2989 RMK AO2 SLP123 T01500056
Loading
Personal Weather Stations






























Interactive Weather Map
Tropical Storm Tracking
New forecast layout! Learn more

10-Day Weather Forecast

Advertisements
Track Severe Weather on mobile